Time;durP1;ratioP1;P1;durP2;ratioP2;P2;SDS_P1;SDS_P2;PMS_P1;PMS_P2;Temp;Humidity;BMP_temperature;BMP_pressure;BME280_temperature;BME280_humidity;BME280_pressure;Samples;Min_cycle;Max_cycle;Signal;HPM_P1;HPM_P2
2021/04/05 00:00:50;;;;;;;;;2.00;2.00;;;;;;;;3540308;39;113254;-71
2021/04/05 00:03:17;;;;;;;;;2.00;2.00;;;;;;;;3538539;39;113142;-71
2021/04/05 00:05:43;;;;;;;;;0.75;0.75;;;;;;;;3538968;39;113431;-72
2021/04/05 00:08:09;;;;;;;;;1.00;1.00;;;;;;;;3538731;39;114062;-73
2021/04/05 00:10:38;;;;;;;;;1.00;1.00;;;;;;;;3540534;39;112203;-72
2021/04/05 00:13:07;;;;;;;;;2.75;1.75;;;;;;;;3538791;39;113800;-71
2021/04/05 00:15:33;;;;;;;;;1.25;1.25;;;;;;;;3538749;39;113573;-72
2021/04/05 00:17:59;;;;;;;;;1.00;1.00;;;;;;;;3538397;39;112077;-71
2021/04/05 00:20:27;;;;;;;;;2.00;1.00;;;;;;;;3540046;39;113311;-71
2021/04/05 00:22:53;;;;;;;;;1.00;1.00;;;;;;;;3539568;39;113899;-72
2021/04/05 00:25:19;;;;;;;;;2.00;2.00;;;;;;;;3540991;39;112013;-72
2021/04/05 00:27:46;;;;;;;;;1.75;1.75;;;;;;;;3537404;39;113305;-72
2021/04/05 00:30:17;;;;;;;;;1.50;1.00;;;;;;;;3538853;39;111814;-72
2021/04/05 00:32:43;;;;;;;;;1.00;1.00;;;;;;;;3539345;39;113755;-71
2021/04/05 00:35:09;;;;;;;;;2.00;1.25;;;;;;;;3538491;39;113994;-72
2021/04/05 00:37:35;;;;;;;;;1.00;1.00;;;;;;;;3538645;39;112253;-74
2021/04/05 00:40:02;;;;;;;;;1.00;1.00;;;;;;;;3539796;39;113566;-71
2021/04/05 00:42:28;;;;;;;;;1.00;1.00;;;;;;;;3537554;39;113565;-73
2021/04/05 00:44:55;;;;;;;;;1.50;1.50;;;;;;;;3539525;39;112047;-72
2021/04/05 00:47:21;;;;;;;;;2.75;1.50;;;;;;;;3540236;39;113325;-73
2021/04/05 00:49:47;;;;;;;;;1.25;1.00;;;;;;;;3539506;39;113011;-73
2021/04/05 00:52:13;;;;;;;;;1.25;1.25;;;;;;;;3537737;39;113354;-73
2021/04/05 00:54:39;;;;;;;;;1.00;1.00;;;;;;;;3538306;39;114268;-72
2021/04/05 00:57:06;;;;;;;;;2.00;1.00;;;;;;;;3538580;39;111855;-72
2021/04/05 00:59:33;;;;;;;;;2.50;2.50;;;;;;;;3537812;39;112573;-73
2021/04/05 01:02:00;;;;;;;;;1.00;1.00;;;;;;;;3537770;39;113939;-72
2021/04/05 01:04:26;;;;;;;;;2.00;2.00;;;;;;;;3539310;39;112221;-72
2021/04/05 01:06:52;;;;;;;;;0.75;0.75;;;;;;;;3539791;39;113308;-72
2021/04/05 01:09:18;;;;;;;;;1.00;1.00;;;;;;;;3539975;39;113919;-72
2021/04/05 01:11:44;;;;;;;;;1.25;1.25;;;;;;;;3538408;39;113263;-71
2021/04/05 01:14:10;;;;;;;;;1.75;1.75;;;;;;;;3538338;39;114046;-71
2021/04/05 01:16:36;;;;;;;;;1.00;1.00;;;;;;;;3539031;39;111981;-71
2021/04/05 01:19:03;;;;;;;;;1.25;1.25;;;;;;;;3540044;39;113854;-72
2021/04/05 01:21:30;;;;;;;;;2.25;2.00;;;;;;;;3537517;39;114299;-72
2021/04/05 01:23:57;;;;;;;;;1.00;1.00;;;;;;;;3539547;39;112010;-72
2021/04/05 01:26:23;;;;;;;;;2.00;2.00;;;;;;;;3539316;39;113455;-72
2021/04/05 01:28:49;;;;;;;;;1.50;1.50;;;;;;;;3539120;39;112934;-72
2021/04/05 01:31:15;;;;;;;;;1.00;1.00;;;;;;;;3541655;39;111953;-72
2021/04/05 01:33:42;;;;;;;;;1.50;1.50;;;;;;;;3538013;39;114146;-72
2021/04/05 01:36:09;;;;;;;;;1.00;1.00;;;;;;;;3538635;39;112176;-71
2021/04/05 01:38:36;;;;;;;;;1.75;1.00;;;;;;;;3538961;39;113707;-72
2021/04/05 01:41:05;;;;;;;;;1.00;1.00;;;;;;;;3537605;39;114474;-71
2021/04/05 01:43:31;;;;;;;;;2.00;2.00;;;;;;;;3537493;39;111938;-71
2021/04/05 01:45:58;;;;;;;;;3.00;1.00;;;;;;;;3537768;39;113377;-71
2021/04/05 01:48:25;;;;;;;;;1.00;1.00;;;;;;;;3538813;39;114318;-72
2021/04/05 01:50:55;;;;;;;;;1.00;1.00;;;;;;;;3537740;39;112041;-71
2021/04/05 01:53:22;;;;;;;;;1.25;1.25;;;;;;;;3541444;39;113649;-72
2021/04/05 01:55:48;;;;;;;;;1.00;1.00;;;;;;;;3537716;39;112070;-72
2021/04/05 01:58:16;;;;;;;;;1.00;1.00;;;;;;;;3540130;39;114075;-72
2021/04/05 02:00:43;;;;;;;;;3.00;1.25;;;;;;;;3538792;39;113790;-72
2021/04/05 02:03:12;;;;;;;;;1.00;1.00;;;;;;;;3539826;39;111907;-72
2021/04/05 02:05:38;;;;;;;;;0.50;0.50;;;;;;;;3539795;39;113524;-72
2021/04/05 02:08:05;;;;;;;;;5.00;2.00;;;;;;;;3535406;39;113061;-72
2021/04/05 02:10:31;;;;;;;;;3.00;1.67;;;;;;;;3538773;39;112404;-72
2021/04/05 02:12:58;;;;;;;;;2.00;1.00;;;;;;;;3540981;39;114056;-71
2021/04/05 02:15:25;;;;;;;;;1.00;1.00;;;;;;;;3540418;39;111726;-70
2021/04/05 02:17:52;;;;;;;;;1.00;1.00;;;;;;;;3542663;39;115029;-72
2021/04/05 02:20:19;;;;;;;;;1.00;1.00;;;;;;;;3539939;39;113976;-71
2021/04/05 02:22:46;;;;;;;;;2.33;2.00;;;;;;;;3539434;39;113737;-70
2021/04/05 02:25:13;;;;;;;;;3.00;2.00;;;;;;;;3541453;39;113192;-69
2021/04/05 02:27:41;;;;;;;;;0.75;0.75;;;;;;;;3541242;39;113937;-70
2021/04/05 02:30:08;;;;;;;;;2.00;2.00;;;;;;;;3539797;39;112495;-70
2021/04/05 02:32:37;;;;;;;;;1.00;1.00;;;;;;;;3538952;39;113288;-72
2021/04/05 02:35:04;;;;;;;;;1.00;1.00;;;;;;;;3541279;39;114050;-71
2021/04/05 02:37:30;;;;;;;;;1.00;1.00;;;;;;;;3537221;39;113474;-71
2021/04/05 02:39:56;;;;;;;;;3.00;3.00;;;;;;;;3538814;39;113901;-72
2021/04/05 02:42:22;;;;;;;;;1.00;1.00;;;;;;;;3539245;39;111802;-72
2021/04/05 02:44:48;;;;;;;;;1.67;1.67;;;;;;;;3538798;39;113351;-71
2021/04/05 02:47:14;;;;;;;;;3.00;2.00;;;;;;;;3539257;39;114679;-71
2021/04/05 02:49:42;;;;;;;;;2.00;2.00;;;;;;;;3539162;39;112538;-71
2021/04/05 02:52:08;;;;;;;;;2.00;2.00;;;;;;;;3539493;39;113256;-72
2021/04/05 02:54:34;;;;;;;;;1.67;1.67;;;;;;;;3540580;39;113509;-72
2021/04/05 02:57:00;;;;;;;;;1.00;1.00;;;;;;;;3541367;39;112437;-72
2021/04/05 02:59:26;;;;;;;;;1.67;1.67;;;;;;;;3539758;39;114437;-72
2021/04/05 03:01:53;;;;;;;;;1.00;1.00;;;;;;;;3538561;39;111773;-71
2021/04/05 03:04:20;;;;;;;;;3.00;1.00;;;;;;;;3539879;39;113400;-71
2021/04/05 03:06:49;;;;;;;;;2.00;2.00;;;;;;;;3540405;39;113976;-72
2021/04/05 03:09:15;;;;;;;;;2.00;1.00;;;;;;;;3539745;39;111935;-72
2021/04/05 03:11:43;;;;;;;;;2.00;2.00;;;;;;;;3539123;39;113280;-71
2021/04/05 03:14:10;;;;;;;;;2.00;1.00;;;;;;;;3538983;39;114212;-71
2021/04/05 03:16:37;;;;;;;;;0.33;0.33;;;;;;;;3540621;39;111966;-71
2021/04/05 03:19:04;;;;;;;;;1.33;1.00;;;;;;;;3541074;39;113156;-72
2021/04/05 03:21:30;;;;;;;;;0.00;0.00;;;;;;;;3539983;39;112752;-72
2021/04/05 03:24:00;;;;;;;;;3.67;2.67;;;;;;;;3538346;39;113616;-72
2021/04/05 03:26:26;;;;;;;;;6.00;2.33;;;;;;;;3539579;39;114136;-72
2021/04/05 03:28:52;;;;;;;;;1.00;1.00;;;;;;;;3540125;39;111997;-72
2021/04/05 03:31:19;;;;;;;;;1.00;1.00;;;;;;;;3538696;39;113274;-71
2021/04/05 03:33:48;;;;;;;;;1.00;1.00;;;;;;;;3539299;39;113760;-72
2021/04/05 03:36:17;;;;;;;;;0.00;0.00;;;;;;;;3538749;39;111885;-71
2021/04/05 03:38:43;;;;;;;;;4.33;2.00;;;;;;;;3538058;39;112207;-71
2021/04/05 03:41:21;;;;;;;;;2.33;2.33;;;;;;;;3542335;39;112994;-71
2021/04/05 03:43:51;;;;;;;;;3.00;2.00;;;;;;;;3539878;39;113200;-71
2021/04/05 03:46:20;;;;;;;;;3.67;1.67;;;;;;;;3538116;39;114121;-71
2021/04/05 03:48:52;;;;;;;;;3.33;3.00;;;;;;;;3539676;39;111924;-71
2021/04/05 03:51:22;;;;;;;;;1.00;1.00;;;;;;;;3539458;39;112600;-71
2021/04/05 03:53:51;;;;;;;;;3.00;3.00;;;;;;;;3539412;39;114371;-71
2021/04/05 03:56:19;;;;;;;;;2.00;2.00;;;;;;;;3538468;39;112369;-73
2021/04/05 03:58:47;;;;;;;;;1.00;1.00;;;;;;;;3541688;39;113679;-72
2021/04/05 04:01:15;;;;;;;;;2.00;2.00;;;;;;;;3539556;39;114679;-75
2021/04/05 04:03:48;;;;;;;;;8.00;2.00;;;;;;;;3541538;39;112195;-74
2021/04/05 04:06:17;;;;;;;;;2.00;2.00;;;;;;;;3539074;39;113966;-75
2021/04/05 04:08:45;;;;;;;;;2.00;2.00;;;;;;;;3538711;39;113067;-73
2021/04/05 04:11:13;;;;;;;;;1.00;1.00;;;;;;;;3541418;39;113305;-74
2021/04/05 04:13:42;;;;;;;;;4.00;1.00;;;;;;;;3538372;39;113666;-74
2021/04/05 04:16:09;;;;;;;;;4.00;2.00;;;;;;;;3537393;39;112442;-74
2021/04/05 04:18:36;;;;;;;;;2.00;1.00;;;;;;;;3538873;39;113267;-74
2021/04/05 04:21:02;;;;;;;;;2.00;2.00;;;;;;;;3537923;39;114113;-76
2021/04/05 04:23:30;;;;;;;;;4.00;4.00;;;;;;;;3542335;39;111951;-73
2021/04/05 04:25:56;;;;;;;;;2.00;2.00;;;;;;;;3537759;39;113913;-72
2021/04/05 04:28:22;;;;;;;;;4.00;4.00;;;;;;;;3539726;39;111750;-71
2021/04/05 04:30:54;;;;;;;;;2.00;2.00;;;;;;;;3538342;39;113528;-73
2021/04/05 04:33:21;;;;;;;;;2.00;2.00;;;;;;;;3539370;39;114285;-73
2021/04/05 04:35:47;;;;;;;;;2.33;2.33;;;;;;;;3538319;39;112170;-73
2021/04/05 04:38:13;;;;;;;;;3.00;1.33;;;;;;;;3539335;39;113319;-72
2021/04/05 04:40:39;;;;;;;;;3.33;3.33;;;;;;;;3538599;39;114011;-73
2021/04/05 04:43:06;;;;;;;;;2.67;2.67;;;;;;;;3538908;39;112210;-72
2021/04/05 04:45:33;;;;;;;;;4.67;2.00;;;;;;;;3541529;39;112623;-72
2021/04/05 04:48:00;;;;;;;;;2.00;2.00;;;;;;;;3538402;39;111848;-73
2021/04/05 04:50:27;;;;;;;;;4.00;2.00;;;;;;;;3539868;39;113450;-73
2021/04/05 04:52:53;;;;;;;;;1.00;1.00;;;;;;;;3538078;39;114116;-71
2021/04/05 04:55:20;;;;;;;;;3.33;3.33;;;;;;;;3539531;39;112141;-73
2021/04/05 04:57:46;;;;;;;;;2.00;2.00;;;;;;;;3538393;39;113493;-72
2021/04/05 05:00:13;;;;;;;;;4.00;2.00;;;;;;;;3538787;39;114122;-72
2021/04/05 05:02:40;;;;;;;;;2.67;2.67;;;;;;;;3538515;39;111905;-73
2021/04/05 05:05:09;;;;;;;;;2.00;2.00;;;;;;;;3538634;39;113067;-71
2021/04/05 05:07:36;;;;;;;;;3.33;3.33;;;;;;;;3541203;39;113963;-73
2021/04/05 05:10:04;;;;;;;;;1.00;1.00;;;;;;;;3538285;39;113752;-72
2021/04/05 05:12:30;;;;;;;;;2.67;2.00;;;;;;;;3538902;39;114100;-72
2021/04/05 05:14:57;;;;;;;;;0.00;0.00;;;;;;;;3537996;39;112730;-73
2021/04/05 05:17:23;;;;;;;;;1.00;1.00;;;;;;;;3539627;39;113339;-72
2021/04/05 05:19:50;;;;;;;;;2.00;2.00;;;;;;;;3537508;39;113965;-73
2021/04/05 05:22:18;;;;;;;;;2.00;2.00;;;;;;;;3541312;39;113281;-72
2021/04/05 05:24:48;;;;;;;;;4.00;4.00;;;;;;;;3538117;39;113361;-72
2021/04/05 05:27:15;;;;;;;;;1.00;1.00;;;;;;;;3538691;39;113000;-73
2021/04/05 05:29:41;;;;;;;;;3.00;3.00;;;;;;;;3541064;39;111902;-72
2021/04/05 05:32:08;;;;;;;;;1.00;1.00;;;;;;;;3537941;39;113985;-72
2021/04/05 05:34:34;;;;;;;;;2.00;1.67;;;;;;;;3539052;39;112101;-72
2021/04/05 05:37:00;;;;;;;;;4.33;3.33;;;;;;;;3537993;39;113779;-71
2021/04/05 05:39:27;;;;;;;;;1.00;1.00;;;;;;;;3538990;39;114575;-72
2021/04/05 05:42:04;;;;;;;;;2.00;2.00;;;;;;;;3537837;39;112018;-72
2021/04/05 05:44:34;;;;;;;;;6.00;6.00;;;;;;;;3541096;39;113397;-73
2021/04/05 05:47:04;;;;;;;;;3.33;3.33;;;;;;;;3537641;39;114107;-71
2021/04/05 05:49:34;;;;;;;;;4.67;3.33;;;;;;;;3539112;39;111827;-72
2021/04/05 05:52:16;;;;;;;;;2.00;2.00;;;;;;;;3542101;39;113607;-72
2021/04/05 05:55:03;;;;;;;;;4.00;2.00;;;;;;;;3538722;39;111767;-72
2021/04/05 05:57:37;;;;;;;;;3.00;2.00;;;;;;;;3539446;39;113643;-71
2021/04/05 06:00:06;;;;;;;;;1.33;1.33;;;;;;;;3537684;39;114111;-72
2021/04/05 06:02:39;;;;;;;;;1.67;1.67;;;;;;;;3538724;39;112307;-72
2021/04/05 06:05:12;;;;;;;;;1.00;1.00;;;;;;;;3538262;39;113349;-72
2021/04/05 06:07:45;;;;;;;;;2.00;2.00;;;;;;;;3537833;39;114243;-73
2021/04/05 06:10:17;;;;;;;;;1.00;1.00;;;;;;;;3538694;39;111795;-72
2021/04/05 06:12:48;;;;;;;;;3.33;1.00;;;;;;;;3537860;39;113725;-74
2021/04/05 06:15:19;;;;;;;;;2.00;2.00;;;;;;;;3540923;39;112003;-72
2021/04/05 06:18:03;;;;;;;;;2.67;1.00;;;;;;;;3537895;39;113503;-72
2021/04/05 06:20:31;;;;;;;;;2.00;2.00;;;;;;;;3538772;39;114307;-72
2021/04/05 06:23:04;;;;;;;;;6.00;4.33;;;;;;;;3537555;39;111902;-72
2021/04/05 06:25:37;;;;;;;;;4.00;4.00;;;;;;;;3539059;39;113828;-71
2021/04/05 06:28:06;;;;;;;;;5.00;4.00;;;;;;;;3538662;39;114148;-71
2021/04/05 06:30:40;;;;;;;;;1.00;1.00;;;;;;;;3538537;39;111810;-73
2021/04/05 06:33:10;;;;;;;;;4.00;4.00;;;;;;;;3538115;39;113524;-72
2021/04/05 06:35:55;;;;;;;;;8.00;5.00;;;;;;;;3540204;39;113746;-73
2021/04/05 06:38:22;;;;;;;;;5.00;4.00;;;;;;;;3538785;39;113845;-75
2021/04/05 06:40:51;;;;;;;;;4.00;4.00;;;;;;;;3536918;39;113650;-73
2021/04/05 06:43:30;;;;;;;;;4.00;4.00;;;;;;;;3539602;39;112346;-73
2021/04/05 06:45:58;;;;;;;;;6.67;4.00;;;;;;;;3540558;39;113478;-72
2021/04/05 06:48:38;;;;;;;;;3.33;3.33;;;;;;;;3536393;39;113366;-72
2021/04/05 06:51:05;;;;;;;;;3.00;3.00;;;;;;;;3540680;39;112057;-72
2021/04/05 06:53:46;;;;;;;;;5.33;4.33;;;;;;;;3539026;39;113447;-71
2021/04/05 06:56:18;;;;;;;;;5.00;3.67;;;;;;;;3538517;39;114167;-73
2021/04/05 06:58:55;;;;;;;;;4.33;4.33;;;;;;;;3545680;39;112804;-73
2021/04/05 07:01:42;;;;;;;;;1.00;1.00;;;;;;;;3539955;39;113873;-73
2021/04/05 07:04:18;;;;;;;;;4.00;4.00;;;;;;;;3541670;39;112404;-73
2021/04/05 07:06:47;;;;;;;;;2.67;2.67;;;;;;;;3539680;39;113832;-72
2021/04/05 07:09:17;;;;;;;;;2.00;2.00;;;;;;;;3538665;39;113923;-72
2021/04/05 07:12:00;;;;;;;;;4.67;2.00;;;;;;;;3539682;39;111955;-73
2021/04/05 07:14:30;;;;;;;;;2.33;2.33;;;;;;;;3540575;39;113440;-73
2021/04/05 07:16:59;;;;;;;;;3.00;3.00;;;;;;;;3537993;39;113912;-71
2021/04/05 07:19:43;;;;;;;;;3.00;3.00;;;;;;;;3540318;39;112149;-72
2021/04/05 07:22:14;;;;;;;;;3.00;3.00;;;;;;;;3543542;39;115137;-73
2021/04/05 07:24:46;;;;;;;;;2.00;1.00;;;;;;;;3539412;39;112190;-72
2021/04/05 07:27:14;;;;;;;;;5.00;3.00;;;;;;;;3539139;39;113648;-71
2021/04/05 07:29:49;;;;;;;;;3.00;3.00;;;;;;;;3538824;39;114787;-72
2021/04/05 07:32:22;;;;;;;;;3.67;3.67;;;;;;;;3538931;39;112794;-72
2021/04/05 07:34:54;;;;;;;;;3.00;3.00;;;;;;;;3540527;39;112787;-73
2021/04/05 07:37:25;;;;;;;;;3.00;2.67;;;;;;;;3537716;39;114973;-73
2021/04/05 07:39:58;;;;;;;;;5.00;4.33;;;;;;;;3540102;39;112248;-72
2021/04/05 07:42:30;;;;;;;;;5.00;5.00;;;;;;;;3540194;39;113192;-71
2021/04/05 07:45:03;;;;;;;;;5.00;5.00;;;;;;;;3542766;39;113961;-72
2021/04/05 07:47:33;;;;;;;;;5.33;4.33;;;;;;;;3545069;39;114568;-72
2021/04/05 07:50:03;;;;;;;;;7.00;7.00;;;;;;;;3543334;39;114053;-71
2021/04/05 07:52:32;;;;;;;;;6.00;6.00;;;;;;;;3545835;39;112223;-71
2021/04/05 07:54:59;;;;;;;;;5.00;5.00;;;;;;;;3547894;39;113415;-71
2021/04/05 07:57:32;;;;;;;;;6.33;6.00;;;;;;;;3543113;39;114420;-72
2021/04/05 08:00:03;;;;;;;;;6.33;5.67;;;;;;;;3540306;39;115145;-72
2021/04/05 08:02:42;;;;;;;;;6.00;6.00;;;;;;;;3539460;39;112651;-71
2021/04/05 08:05:14;;;;;;;;;6.00;5.00;;;;;;;;3538925;39;114573;-72
2021/04/05 08:07:45;;;;;;;;;3.67;3.67;;;;;;;;3541058;39;112042;-72
2021/04/05 08:10:16;;;;;;;;;5.00;3.67;;;;;;;;3536355;39;113225;-72
2021/04/05 08:12:51;;;;;;;;;6.33;6.33;;;;;;;;3539480;39;113237;-72
2021/04/05 08:15:28;;;;;;;;;5.33;5.33;;;;;;;;3538170;39;113822;-71
2021/04/05 08:18:01;;;;;;;;;6.00;6.00;;;;;;;;3539073;39;113878;-74
2021/04/05 08:20:30;;;;;;;;;5.67;4.33;;;;;;;;3539432;39;112633;-83
2021/04/05 08:22:58;;;;;;;;;5.00;3.50;;;;;;;;3537272;39;113640;-77
2021/04/05 08:25:39;;;;;;;;;2.75;2.50;;;;;;;;3538756;39;114105;-77
2021/04/05 08:28:17;;;;;;;;;3.00;3.00;;;;;;;;3542283;39;111924;-76
2021/04/05 08:30:51;;;;;;;;;2.25;2.00;;;;;;;;3538300;39;113878;-76
2021/04/05 08:33:34;;;;;;;;;3.00;3.00;;;;;;;;3538956;39;112442;-76
2021/04/05 08:36:05;;;;;;;;;3.00;3.00;;;;;;;;3541150;39;113644;-74
2021/04/05 08:38:42;;;;;;;;;2.00;1.75;;;;;;;;3537244;39;113828;-75
2021/04/05 08:41:26;;;;;;;;;3.75;3.75;;;;;;;;3540180;39;112235;-75
2021/04/05 08:43:59;;;;;;;;;1.75;1.75;;;;;;;;3543216;39;114191;-77
2021/04/05 08:46:28;;;;;;;;;3.00;3.00;;;;;;;;3539927;39;113960;-77
2021/04/05 08:49:00;;;;;;;;;2.00;2.00;;;;;;;;3539377;39;111923;-79
2021/04/05 08:51:32;;;;;;;;;4.75;3.25;;;;;;;;3542090;39;113251;-80
2021/04/05 08:54:01;;;;;;;;;4.25;3.00;;;;;;;;3540972;39;112466;-81
2021/04/05 08:56:31;;;;;;;;;4.50;3.00;;;;;;;;3541032;39;113163;-80
2021/04/05 08:59:02;;;;;;;;;2.67;2.67;;;;;;;;3539294;39;114126;-86
2021/04/05 09:01:31;;;;;;;;;2.00;2.00;;;;;;;;3546967;39;112135;-82
2021/04/05 09:04:01;;;;;;;;;2.00;1.00;;;;;;;;3545544;39;113343;-81
2021/04/05 09:06:33;;;;;;;;;5.67;4.00;;;;;;;;3545616;39;113796;-78
2021/04/05 09:08:59;;;;;;;;;3.00;3.00;;;;;;;;3545788;39;111933;-81
2021/04/05 09:11:25;;;;;;;;;3.33;3.00;;;;;;;;3547040;39;113285;-77
2021/04/05 09:13:54;;;;;;;;;4.00;4.00;;;;;;;;3544478;39;113875;-77
2021/04/05 09:16:41;;;;;;;;;5.33;3.33;;;;;;;;3539773;39;112017;-85
2021/04/05 09:19:33;;;;;;;;;2.00;2.00;;;;;;;;3538947;39;114019;-75
2021/04/05 09:22:14;;;;;;;;;3.00;3.00;;;;;;;;3538749;39;112499;-80
2021/04/05 09:24:59;;;;;;;;;4.33;3.00;;;;;;;;3525467;39;113790;-82
2021/04/05 09:27:32;;;;;;;;;1.00;1.00;;;;;;;;3541142;39;114393;-82
2021/04/05 09:30:12;;;;;;;;;3.33;3.33;;;;;;;;3539135;39;113178;-77
2021/04/05 09:32:55;;;;;;;;;2.67;2.67;;;;;;;;3537926;39;113916;-77
2021/04/05 09:35:27;;;;;;;;;4.00;4.00;;;;;;;;3537778;39;113370;-75
2021/04/05 09:38:12;;;;;;;;;4.00;3.00;;;;;;;;3541856;39;112216;-74
2021/04/05 09:40:58;;;;;;;;;4.67;4.67;;;;;;;;3540982;39;114045;-76
2021/04/05 09:43:32;;;;;;;;;5.00;4.00;;;;;;;;3538395;39;111883;-75
2021/04/05 09:46:06;;;;;;;;;5.00;5.00;;;;;;;;3539334;39;112830;-75
2021/04/05 09:48:53;;;;;;;;;7.00;4.00;;;;;;;;3536486;39;114283;-75
2021/04/05 09:51:37;;;;;;;;;7.00;5.33;;;;;;;;3536985;39;112705;-77
2021/04/05 09:54:12;;;;;;;;;4.00;4.00;;;;;;;;3540277;39;114204;-74
2021/04/05 09:56:43;;;;;;;;;5.00;5.00;;;;;;;;3537017;39;113475;-76
2021/04/05 09:59:11;;;;;;;;;4.00;4.00;;;;;;;;3538829;39;111827;-75
2021/04/05 10:01:37;;;;;;;;;7.00;5.67;;;;;;;;3541577;39;113296;-73
2021/04/05 10:04:05;;;;;;;;;4.67;4.67;;;;;;;;3539241;39;112332;-77
2021/04/05 10:06:34;;;;;;;;;4.00;4.00;;;;;;;;3539147;39;114104;-76
2021/04/05 10:09:00;;;;;;;;;6.00;4.00;;;;;;;;3538945;39;113813;-75
2021/04/05 10:11:28;;;;;;;;;5.00;5.00;;;;;;;;3538481;39;112369;-78
2021/04/05 10:13:59;;;;;;;;;5.33;4.33;;;;;;;;3539848;39;113385;-76
2021/04/05 10:16:26;;;;;;;;;5.00;5.00;;;;;;;;3538173;39;114668;-77
2021/04/05 10:18:54;;;;;;;;;4.00;4.00;;;;;;;;3539011;39;113293;-77
2021/04/05 10:21:21;;;;;;;;;3.33;3.33;;;;;;;;3540374;39;113179;-75
2021/04/05 10:23:49;;;;;;;;;4.00;4.00;;;;;;;;3542731;39;113922;-74
2021/04/05 10:26:16;;;;;;;;;4.00;4.00;;;;;;;;3541710;39;112620;-76
2021/04/05 10:28:48;;;;;;;;;4.00;4.00;;;;;;;;3539223;39;114725;-73
2021/04/05 10:31:16;;;;;;;;;4.00;4.00;;;;;;;;3538975;39;112029;-74
2021/04/05 10:33:44;;;;;;;;;5.00;5.00;;;;;;;;3539024;39;113373;-75
2021/04/05 10:36:12;;;;;;;;;7.67;6.00;;;;;;;;3538212;39;114059;-75
2021/04/05 10:38:38;;;;;;;;;5.00;5.00;;;;;;;;3540021;39;112038;-79
2021/04/05 10:41:06;;;;;;;;;10.00;9.00;;;;;;;;3540087;39;113736;-76
2021/04/05 10:43:36;;;;;;;;;7.00;5.00;;;;;;;;3542350;39;115125;-73
2021/04/05 10:46:05;;;;;;;;;3.67;3.67;;;;;;;;3540027;39;113671;-77
2021/04/05 10:48:37;;;;;;;;;5.75;5.00;;;;;;;;3539074;39;113680;-76
2021/04/05 10:51:05;;;;;;;;;5.00;5.00;;;;;;;;3539677;39;111955;-74
2021/04/05 10:53:35;;;;;;;;;3.00;3.00;;;;;;;;3537064;39;113214;-81
2021/04/05 10:56:06;;;;;;;;;4.50;4.50;;;;;;;;3540957;39;113932;-77
2021/04/05 10:58:37;;;;;;;;;3.75;2.75;;;;;;;;3538661;39;111965;-77
2021/04/05 11:01:06;;;;;;;;;3.75;3.25;;;;;;;;3539809;39;113268;-75
2021/04/05 11:03:34;;;;;;;;;2.50;2.00;;;;;;;;3540066;39;113757;-85
2021/04/05 11:06:02;;;;;;;;;1.50;1.50;;;;;;;;3544366;39;111943;-77
2021/04/05 11:08:29;;;;;;;;;2.00;2.00;;;;;;;;3539510;39;113869;-75
2021/04/05 11:11:00;;;;;;;;;3.00;2.00;;;;;;;;3542193;39;111935;-75
2021/04/05 11:13:27;;;;;;;;;4.00;4.00;;;;;;;;3538367;39;113349;-74
2021/04/05 11:15:55;;;;;;;;;4.00;4.00;;;;;;;;3538051;39;113827;-77
2021/04/05 11:18:24;;;;;;;;;6.25;4.00;;;;;;;;3536205;39;113465;-76
2021/04/05 11:20:50;;;;;;;;;4.00;2.00;;;;;;;;3537732;39;113436;-76
2021/04/05 11:23:18;;;;;;;;;5.00;4.00;;;;;;;;3536240;39;113756;-77
2021/04/05 11:25:46;;;;;;;;;6.00;3.75;;;;;;;;3537603;39;112169;-76
2021/04/05 11:28:14;;;;;;;;;3.50;3.00;;;;;;;;3542990;39;113397;-77
2021/04/05 11:30:41;;;;;;;;;6.00;4.00;;;;;;;;3538997;39;111821;-74
2021/04/05 11:33:08;;;;;;;;;2.00;2.00;;;;;;;;3539196;39;113524;-77
2021/04/05 11:35:36;;;;;;;;;4.00;3.00;;;;;;;;3537832;39;113873;-77
2021/04/05 11:38:04;;;;;;;;;6.00;4.00;;;;;;;;3539632;39;111950;-76
2021/04/05 11:40:33;;;;;;;;;3.00;3.00;;;;;;;;3538100;39;113393;-76
2021/04/05 11:43:00;;;;;;;;;2.50;2.00;;;;;;;;3539130;39;113905;-78
2021/04/05 11:45:31;;;;;;;;;3.00;3.00;;;;;;;;3537943;39;111999;-75
2021/04/05 11:47:57;;;;;;;;;2.00;2.00;;;;;;;;3542081;39;113521;-75
2021/04/05 11:50:26;;;;;;;;;4.25;4.25;;;;;;;;3540211;39;114337;-74
2021/04/05 11:52:53;;;;;;;;;4.00;4.00;;;;;;;;3540098;39;113291;-75
2021/04/05 11:55:21;;;;;;;;;2.75;2.75;;;;;;;;3537549;39;114371;-75
2021/04/05 11:57:52;;;;;;;;;2.00;2.00;;;;;;;;3539617;39;112015;-76
2021/04/05 12:00:24;;;;;;;;;4.25;3.50;;;;;;;;3539754;39;113270;-76
2021/04/05 12:02:51;;;;;;;;;4.25;4.25;;;;;;;;3537816;39;114336;-75
2021/04/05 12:05:24;;;;;;;;;4.50;4.50;;;;;;;;3539410;39;112056;-76
2021/04/05 12:07:55;;;;;;;;;6.00;4.00;;;;;;;;3538196;39;113350;-75
2021/04/05 12:10:23;;;;;;;;;5.00;5.00;;;;;;;;3539636;39;115426;-75
2021/04/05 12:12:53;;;;;;;;;5.50;3.75;;;;;;;;3542573;39;111971;-78
2021/04/05 12:15:20;;;;;;;;;7.75;5.00;;;;;;;;3537626;39;114262;-75
2021/04/05 12:17:47;;;;;;;;;4.00;4.00;;;;;;;;3539471;39;112381;-74
2021/04/05 12:20:15;;;;;;;;;3.00;3.00;;;;;;;;3538837;39;113277;-75
2021/04/05 12:22:42;;;;;;;;;4.00;3.00;;;;;;;;3538731;39;113941;-77
2021/04/05 12:25:12;;;;;;;;;5.50;3.75;;;;;;;;3539115;39;111787;-76
2021/04/05 12:27:39;;;;;;;;;4.00;4.00;;;;;;;;3538871;39;113213;-74
2021/04/05 12:30:10;;;;;;;;;3.50;3.50;;;;;;;;3538598;39;114418;-76
2021/04/05 12:32:37;;;;;;;;;5.50;5.50;;;;;;;;3538755;39;111802;-74
2021/04/05 12:35:05;;;;;;;;;5.00;5.00;;;;;;;;3541383;39;113216;-75
2021/04/05 12:37:32;;;;;;;;;5.00;4.00;;;;;;;;3538019;39;111903;-75
2021/04/05 12:40:00;;;;;;;;;6.00;4.50;;;;;;;;3538799;39;113743;-75
2021/04/05 12:42:29;;;;;;;;;4.25;3.75;;;;;;;;3537331;39;113889;-76
2021/04/05 12:44:56;;;;;;;;;3.25;3.25;;;;;;;;3539848;39;112192;-77
2021/04/05 12:47:29;;;;;;;;;5.75;4.25;;;;;;;;3539743;39;113383;-74
2021/04/05 12:49:55;;;;;;;;;4.50;4.50;;;;;;;;3539506;39;114062;-75
2021/04/05 12:52:23;;;;;;;;;4.50;2.50;;;;;;;;3539569;39;111828;-75
2021/04/05 12:54:51;;;;;;;;;3.00;3.00;;;;;;;;3540285;39;113431;-74
2021/04/05 12:57:26;;;;;;;;;7.00;4.00;;;;;;;;3539157;39;111920;-75
2021/04/05 12:59:54;;;;;;;;;2.50;2.50;;;;;;;;3539766;39;113528;-74
2021/04/05 13:02:21;;;;;;;;;4.00;4.00;;;;;;;;3537427;39;113985;-75
2021/04/05 13:04:52;;;;;;;;;3.25;3.00;;;;;;;;3539442;39;111946;-75
2021/04/05 13:07:20;;;;;;;;;3.00;3.00;;;;;;;;3537901;39;113243;-74
2021/04/05 13:09:52;;;;;;;;;4.00;3.00;;;;;;;;3538698;39;114589;-75
2021/04/05 13:12:22;;;;;;;;;3.00;3.00;;;;;;;;3537843;39;112873;-76
2021/04/05 13:14:50;;;;;;;;;3.00;2.00;;;;;;;;3539455;39;113371;-75
2021/04/05 13:17:24;;;;;;;;;4.00;4.00;;;;;;;;3540282;39;114061;-76
2021/04/05 13:19:52;;;;;;;;;2.75;2.00;;;;;;;;3539516;39;113651;-74
2021/04/05 13:22:19;;;;;;;;;3.00;2.50;;;;;;;;3537852;39;114223;-76
2021/04/05 13:24:48;;;;;;;;;5.25;4.00;;;;;;;;3539186;39;111810;-75
2021/04/05 13:27:21;;;;;;;;;3.00;3.00;;;;;;;;3538411;39;112953;-75
2021/04/05 13:29:48;;;;;;;;;1.00;1.00;;;;;;;;3538891;39;113922;-75
2021/04/05 13:32:15;;;;;;;;;2.50;2.00;;;;;;;;3537907;39;111788;-76
2021/04/05 13:34:43;;;;;;;;;3.00;3.00;;;;;;;;3539114;39;113973;-76
2021/04/05 13:37:11;;;;;;;;;3.50;3.50;;;;;;;;3537920;39;114419;-76
2021/04/05 13:39:37;;;;;;;;;2.50;2.50;;;;;;;;3540799;39;111882;-76
2021/04/05 13:42:06;;;;;;;;;5.50;4.25;;;;;;;;3538444;39;113903;-74
2021/04/05 13:44:33;;;;;;;;;4.00;2.00;;;;;;;;3537458;39;111901;-74
2021/04/05 13:47:01;;;;;;;;;2.00;2.00;;;;;;;;3537997;39;111848;-76
2021/04/05 13:49:30;;;;;;;;;4.50;4.00;;;;;;;;3539062;39;113945;-76
2021/04/05 13:51:59;;;;;;;;;2.25;1.00;;;;;;;;3538309;39;111958;-76
2021/04/05 13:54:26;;;;;;;;;4.75;3.25;;;;;;;;3540302;39;113296;-81
2021/04/05 13:56:54;;;;;;;;;4.00;3.00;;;;;;;;3539818;39;114518;-71
2021/04/05 13:59:21;;;;;;;;;3.00;3.00;;;;;;;;3537942;39;111935;-71
2021/04/05 14:01:48;;;;;;;;;3.50;3.50;;;;;;;;3542094;39;114236;-72
2021/04/05 14:04:14;;;;;;;;;3.00;3.00;;;;;;;;3538687;39;112338;-73
2021/04/05 14:06:43;;;;;;;;;5.50;3.00;;;;;;;;3539255;39;113317;-72
2021/04/05 14:09:12;;;;;;;;;6.00;4.75;;;;;;;;3538753;39;114097;-73
2021/04/05 14:11:39;;;;;;;;;5.25;5.25;;;;;;;;3538875;39;112110;-72
2021/04/05 14:14:05;;;;;;;;;5.50;5.50;;;;;;;;3546340;39;112549;-73
2021/04/05 14:16:36;;;;;;;;;5.25;5.25;;;;;;;;3544189;39;113962;-72
2021/04/05 14:19:06;;;;;;;;;4.50;4.00;;;;;;;;3543134;39;112001;-71
2021/04/05 14:21:34;;;;;;;;;3.00;3.00;;;;;;;;3539808;39;113343;-80
2021/04/05 14:24:04;;;;;;;;;4.00;4.00;;;;;;;;3540781;39;113765;-80
2021/04/05 14:26:34;;;;;;;;;3.00;3.00;;;;;;;;3540026;39;113570;-76
2021/04/05 14:29:02;;;;;;;;;3.00;3.00;;;;;;;;3538760;39;113796;-81
2021/04/05 14:31:30;;;;;;;;;3.00;3.00;;;;;;;;3539875;39;112368;-81
2021/04/05 14:33:58;;;;;;;;;5.00;4.25;;;;;;;;3538844;39;113111;-83
2021/04/05 14:36:26;;;;;;;;;4.00;3.25;;;;;;;;3538527;39;112885;-82
2021/04/05 14:38:54;;;;;;;;;6.00;5.00;;;;;;;;3540789;39;111753;-83
2021/04/05 14:41:23;;;;;;;;;2.00;2.00;;;;;;;;3540756;39;113496;-81
2021/04/05 14:43:52;;;;;;;;;4.25;4.00;;;;;;;;3546654;39;113918;-79